Time;durP1;ratioP1;P1;durP2;ratioP2;P2;SDS_P1;SDS_P2;PMS_P1;PMS_P2;Temp;Humidity;BMP_temperature;BMP_pressure;BME280_temperature;BME280_humidity;BME280_pressure;Samples;Min_cycle;Max_cycle;Signal;HPM_P1;HPM_P2
2023/04/10 00:01:15;;;;;;;0.20;0.20;;;;;;;18.82;44.85;101830.34;5117472;28;20035;-48
2023/04/10 00:03:41;;;;;;;0.20;0.20;;;;;;;18.82;44.86;101829.50;5117295;28;20260;-47
2023/04/10 00:06:07;;;;;;;0.20;0.20;;;;;;;18.82;44.82;101833.09;5116821;28;20044;-47
2023/04/10 00:08:33;;;;;;;0.20;0.20;;;;;;;18.82;44.96;101827.56;5117336;28;20420;-47
2023/04/10 00:10:58;;;;;;;0.20;0.20;;;;;;;18.82;44.76;101821.22;5117194;28;20489;-47
2023/04/10 00:13:24;;;;;;;0.20;0.20;;;;;;;18.82;44.58;101816.53;5117202;28;20055;-48
2023/04/10 00:15:50;;;;;;;0.20;0.20;;;;;;;18.82;45.07;101810.19;5117181;28;20483;-48
2023/04/10 00:18:15;;;;;;;0.22;0.22;;;;;;;18.82;44.73;101808.25;5117263;28;20173;-47
2023/04/10 00:20:42;;;;;;;0.20;0.20;;;;;;;18.81;45.04;101806.59;5117284;28;20514;-47
2023/04/10 00:23:08;;;;;;;0.20;0.20;;;;;;;18.82;44.81;101810.19;5117414;28;20527;-48
2023/04/10 00:25:33;;;;;;;0.20;0.20;;;;;;;18.82;45.08;101801.91;5098281;28;20047;-47
2023/04/10 00:27:59;;;;;;;0.30;0.30;;;;;;;18.82;44.73;101801.91;5116944;28;20051;-48
2023/04/10 00:30:25;;;;;;;0.20;0.20;;;;;;;18.83;44.68;101795.31;5116424;28;20050;-48
2023/04/10 00:32:50;;;;;;;0.20;0.20;;;;;;;18.82;44.75;101797.22;5117103;27;20078;-47
2023/04/10 00:35:16;;;;;;;0.20;0.20;;;;;;;18.82;44.86;101788.94;5116859;28;20099;-47
2023/04/10 00:37:42;;;;;;;0.20;0.20;;;;;;;18.80;44.68;101775.41;5116814;28;20051;-48
2023/04/10 00:40:08;;;;;;;0.30;0.30;;;;;;;18.82;44.83;101790.88;5116857;28;20047;-48
2023/04/10 00:42:33;;;;;;;0.20;0.20;;;;;;;18.82;45.00;101782.59;5116833;27;20043;-47
2023/04/10 00:44:59;;;;;;;0.20;0.20;;;;;;;18.82;44.83;101790.88;5114742;28;20039;-49
2023/04/10 00:47:25;;;;;;;0.20;0.20;;;;;;;18.83;44.99;101781.53;5116708;28;20412;-47
2023/04/10 00:49:52;;;;;;;0.20;0.20;;;;;;;18.82;45.02;101791.69;5116761;27;20047;-47
2023/04/10 00:52:18;;;;;;;0.20;0.20;;;;;;;18.82;44.69;101780.66;5116723;27;20078;-49
2023/04/10 00:54:43;;;;;;;0.25;0.25;;;;;;;18.82;44.79;101786.19;5095157;28;20116;-47
2023/04/10 00:57:09;;;;;;;0.20;0.20;;;;;;;18.82;44.65;101780.66;5098998;28;20066;-48
2023/04/10 00:59:35;;;;;;;0.20;0.20;;;;;;;18.83;44.95;101776.00;5102051;28;20063;-48
2023/04/10 01:02:01;;;;;;;0.20;0.20;;;;;;;18.82;44.85;101775.13;5096019;28;20506;-48
2023/04/10 01:04:29;;;;;;;0.20;0.20;;;;;;;18.83;44.98;101774.06;5093749;28;20392;-47
2023/04/10 01:06:59;;;;;;;0.20;0.20;;;;;;;18.83;44.87;101776.00;5096375;28;20247;-48
2023/04/10 01:09:47;;;;;;;0.20;0.20;;;;;;;18.83;44.68;101762.19;5096281;28;20326;-48
2023/04/10 01:12:29;;;;;;;0.20;0.20;;;;;;;18.83;44.95;101764.97;5080167;28;20093;-48
2023/04/10 01:15:13;;;;;;;0.30;0.30;;;;;;;18.81;44.89;101759.69;5116915;28;20051;-48
2023/04/10 01:17:45;;;;;;;0.30;0.30;;;;;;;18.83;44.90;101759.44;5081659;28;20039;-47
2023/04/10 01:20:19;;;;;;;0.20;0.20;;;;;;;18.82;44.79;101755.00;5116726;28;20071;-49
2023/04/10 01:23:11;;;;;;;0.20;0.20;;;;;;;18.82;44.97;101752.22;5094267;28;20078;-48
2023/04/10 01:25:42;;;;;;;0.20;0.20;;;;;;;18.82;44.97;101755.81;5100965;28;20094;-48
2023/04/10 01:28:29;;;;;;;0.20;0.20;;;;;;;18.82;44.90;101750.31;5098608;28;20077;-48
2023/04/10 01:30:57;;;;;;;0.20;0.20;;;;;;;18.82;44.96;101742.03;5104779;27;20057;-47
2023/04/10 01:33:35;;;;;;;0.20;0.20;;;;;;;18.83;44.84;101742.88;5091360;28;20332;-49
2023/04/10 01:36:04;;;;;;;0.20;0.20;;;;;;;18.81;45.00;101734.84;5094823;28;20044;-47
2023/04/10 01:38:30;;;;;;;0.20;0.20;;;;;;;18.82;44.99;101730.16;5094240;28;20054;-48
2023/04/10 01:40:57;;;;;;;0.20;0.20;;;;;;;18.83;44.87;101731.84;5094380;28;20044;-48
2023/04/10 01:43:25;;;;;;;0.20;0.20;;;;;;;18.83;44.92;101720.81;5094025;28;20040;-48
2023/04/10 01:45:51;;;;;;;0.10;0.10;;;;;;;18.82;45.01;101719.13;5111329;28;20410;-49
2023/04/10 01:48:17;;;;;;;0.25;0.25;;;;;;;18.81;44.82;101718.28;5116184;28;20065;-47
2023/04/10 01:50:44;;;;;;;0.20;0.20;;;;;;;18.82;44.94;101725.47;5116126;27;20291;-48
2023/04/10 01:53:10;;;;;;;0.20;0.20;;;;;;;18.83;44.68;101720.81;5108566;28;20403;-48
2023/04/10 01:55:36;;;;;;;0.20;0.20;;;;;;;18.83;44.91;101723.56;5115761;28;20071;-47
2023/04/10 01:58:03;;;;;;;0.20;0.20;;;;;;;18.82;44.96;101719.13;5115807;28;20039;-47
2023/04/10 02:00:29;;;;;;;0.20;0.20;;;;;;;18.83;44.99;101723.56;5115226;28;20108;-47
2023/04/10 02:02:57;;;;;;;0.20;0.20;;;;;;;18.83;44.96;101718.88;5115427;28;20043;-48
2023/04/10 02:05:27;;;;;;;0.30;0.30;;;;;;;18.81;44.83;101715.53;5115217;28;20454;-47
2023/04/10 02:08:04;;;;;;;0.38;0.38;;;;;;;18.83;44.75;101712.53;5115774;28;20271;-47
2023/04/10 02:10:36;;;;;;;0.30;0.30;;;;;;;18.83;44.85;101709.78;5097265;28;20085;-47
2023/04/10 02:13:06;;;;;;;0.20;0.20;;;;;;;18.82;44.71;101700.63;5093523;28;20051;-47
2023/04/10 02:15:33;;;;;;;0.20;0.20;;;;;;;18.83;44.74;101709.78;5093172;28;20055;-48
2023/04/10 02:18:00;;;;;;;0.20;0.20;;;;;;;18.82;44.99;101700.63;5094874;28;20047;-47
2023/04/10 02:20:26;;;;;;;0.25;0.25;;;;;;;18.82;44.92;101708.06;5093506;28;20071;-47
2023/04/10 02:22:52;;;;;;;0.20;0.20;;;;;;;18.83;44.93;101709.78;5094410;28;20101;-48
2023/04/10 02:25:18;;;;;;;0.20;0.20;;;;;;;18.82;44.63;101711.66;5087357;28;20479;-47
2023/04/10 02:27:43;;;;;;;0.20;0.20;;;;;;;18.83;44.91;101729.09;5096590;28;20049;-48
2023/04/10 02:30:10;;;;;;;0.20;0.20;;;;;;;18.82;44.94;101719.94;5114289;28;20047;-47
2023/04/10 02:32:35;;;;;;;0.20;0.20;;;;;;;18.83;44.77;101721.63;5114172;27;20047;-48
2023/04/10 02:35:02;;;;;;;0.20;0.20;;;;;;;18.83;44.90;101712.53;5107566;28;20081;-47
2023/04/10 02:37:28;;;;;;;0.20;0.20;;;;;;;18.82;44.93;101711.66;5114573;28;20138;-47
2023/04/10 02:39:54;;;;;;;0.20;0.20;;;;;;;18.82;44.96;101711.66;5096732;28;20067;-48
2023/04/10 02:42:19;;;;;;;0.20;0.20;;;;;;;18.83;44.95;101709.78;5114751;28;20043;-47
2023/04/10 02:44:46;;;;;;;0.20;0.20;;;;;;;18.84;44.72;101703.16;5114771;28;20055;-47
2023/04/10 02:47:12;;;;;;;0.20;0.20;;;;;;;18.82;44.56;101708.06;5095779;28;20096;-48
2023/04/10 02:49:37;;;;;;;0.20;0.20;;;;;;;18.83;44.68;101707.84;5114555;28;20050;-47
2023/04/10 02:52:03;;;;;;;0.20;0.20;;;;;;;18.83;45.11;101698.72;5114479;28;20074;-48
2023/04/10 02:54:29;;;;;;;0.20;0.20;;;;;;;18.82;44.95;101697.88;5114408;27;20039;-47
2023/04/10 02:56:56;;;;;;;0.30;0.30;;;;;;;18.82;44.65;101700.63;5115051;28;20491;-47
2023/04/10 02:59:22;;;;;;;0.22;0.22;;;;;;;18.83;44.86;101698.72;5114919;28;20154;-47
2023/04/10 03:01:50;;;;;;;0.20;0.20;;;;;;;18.83;44.93;101687.69;5114566;28;20051;-47
2023/04/10 03:04:18;;;;;;;0.20;0.20;;;;;;;18.83;44.90;101695.97;5095118;28;20050;-49
2023/04/10 03:06:43;;;;;;;0.20;0.20;;;;;;;18.82;44.66;101689.59;5116547;27;20074;-48
2023/04/10 03:09:09;;;;;;;0.40;0.30;;;;;;;18.83;44.81;101695.97;5118474;28;20051;-47
2023/04/10 03:11:35;;;;;;;0.20;0.20;;;;;;;18.83;44.93;101682.19;5118319;28;20039;-48
2023/04/10 03:14:00;;;;;;;0.20;0.20;;;;;;;18.83;44.74;101682.19;5117677;28;20071;-49
2023/04/10 03:16:26;;;;;;;0.20;0.20;;;;;;;18.83;44.94;101671.97;5117786;28;20050;-49
2023/04/10 03:18:52;;;;;;;0.20;0.20;;;;;;;18.83;44.90;101679.41;5099659;28;20058;-47
2023/04/10 03:21:18;;;;;;;0.20;0.20;;;;;;;18.82;44.84;101674.97;5118401;28;20046;-49
2023/04/10 03:23:44;;;;;;;0.20;0.20;;;;;;;18.83;45.00;101671.97;5117912;28;20286;-48
2023/04/10 03:26:09;;;;;;;0.20;0.20;;;;;;;18.83;44.93;101669.19;5096098;28;20105;-48
2023/04/10 03:28:35;;;;;;;0.20;0.20;;;;;;;18.83;44.69;101660.09;5098428;27;20047;-48
2023/04/10 03:31:02;;;;;;;0.20;0.20;;;;;;;18.83;44.83;101651.81;5125165;27;20047;-48
2023/04/10 03:33:28;;;;;;;0.20;0.20;;;;;;;18.83;44.92;101644.38;5099406;28;20423;-48
2023/04/10 03:35:56;;;;;;;0.20;0.20;;;;;;;18.83;44.59;101649.88;5099695;28;20391;-48
2023/04/10 03:38:21;;;;;;;0.20;0.20;;;;;;;18.83;44.83;101638.00;5117908;28;20047;-49
2023/04/10 03:40:47;;;;;;;0.30;0.30;;;;;;;18.83;44.86;101644.38;5118289;28;20039;-48
2023/04/10 03:43:13;;;;;;;0.20;0.20;;;;;;;18.83;44.66;101643.53;5117714;28;20043;-49
2023/04/10 03:45:38;;;;;;;0.20;0.20;;;;;;;18.84;44.71;101648.78;5117494;28;20051;-49
2023/04/10 03:48:04;;;;;;;0.20;0.20;;;;;;;18.83;44.68;101638.00;5117624;28;20053;-48
2023/04/10 03:50:30;;;;;;;0.20;0.20;;;;;;;18.84;44.88;101642.44;5115531;28;20407;-50
2023/04/10 03:52:56;;;;;;;0.20;0.20;;;;;;;18.82;44.65;101639.91;5117710;28;20087;-49
2023/04/10 03:55:21;;;;;;;0.20;0.20;;;;;;;18.83;44.66;101635.25;5117574;28;20051;-48
2023/04/10 03:57:48;;;;;;;0.20;0.20;;;;;;;18.84;44.73;101634.16;5117449;28;20054;-47
2023/04/10 04:00:15;;;;;;;0.20;0.20;;;;;;;18.83;44.48;101632.50;5099180;28;20456;-48
2023/04/10 04:02:40;;;;;;;0.28;0.28;;;;;;;18.84;44.67;101631.41;5082675;28;20047;-50
2023/04/10 04:05:07;;;;;;;0.30;0.30;;;;;;;18.83;44.81;101630.56;5117190;28;20047;-48
2023/04/10 04:07:32;;;;;;;0.30;0.30;;;;;;;18.83;44.76;101636.09;5099273;28;20069;-47
2023/04/10 04:09:59;;;;;;;0.30;0.30;;;;;;;18.84;44.93;101636.91;5117564;28;20059;-48
2023/04/10 04:12:25;;;;;;;0.20;0.20;;;;;;;18.84;44.60;101634.16;5099813;28;20047;-48
2023/04/10 04:14:51;;;;;;;0.20;0.20;;;;;;;18.84;44.75;101642.44;5095829;28;20564;-48
2023/04/10 04:17:16;;;;;;;0.30;0.30;;;;;;;18.83;44.82;101643.53;5096688;28;20439;-48
2023/04/10 04:19:42;;;;;;;0.20;0.20;;;;;;;18.84;44.98;101634.16;5097269;28;20047;-47
2023/04/10 04:22:08;;;;;;;0.20;0.20;;;;;;;18.83;44.76;101624.22;5108166;27;20367;-47
2023/04/10 04:24:34;;;;;;;0.20;0.20;;;;;;;18.83;44.76;101630.56;5095340;28;20047;-49
2023/04/10 04:27:00;;;;;;;0.20;0.20;;;;;;;18.84;44.66;101623.13;5096676;28;20177;-48
2023/04/10 04:29:25;;;;;;;0.20;0.20;;;;;;;18.83;44.95;101621.47;5112302;27;20465;-47
2023/04/10 04:31:51;;;;;;;0.20;0.20;;;;;;;18.84;44.59;101614.84;5132666;27;20077;-48
2023/04/10 04:34:17;;;;;;;0.20;0.20;;;;;;;18.83;44.73;101621.47;5117318;28;20043;-49
2023/04/10 04:36:42;;;;;;;0.20;0.20;;;;;;;18.83;44.61;101622.28;5116777;28;20077;-48
2023/04/10 04:39:08;;;;;;;0.20;0.20;;;;;;;18.83;45.07;101618.69;5117284;28;20043;-48
2023/04/10 04:41:34;;;;;;;0.20;0.20;;;;;;;18.84;44.90;101606.56;5117179;28;20483;-48
2023/04/10 04:44:01;;;;;;;0.20;0.20;;;;;;;18.83;44.76;101615.94;5117616;28;20043;-49
2023/04/10 04:46:27;;;;;;;0.20;0.20;;;;;;;18.84;44.83;101617.59;5098798;28;20051;-47
2023/04/10 04:48:53;;;;;;;0.20;0.20;;;;;;;18.84;44.91;101618.44;5098743;28;20039;-48
2023/04/10 04:51:18;;;;;;;0.20;0.20;;;;;;;18.83;44.69;101621.47;5098393;28;20092;-48
2023/04/10 04:53:44;;;;;;;0.30;0.30;;;;;;;18.84;44.64;101621.19;5098281;28;20418;-48
2023/04/10 04:56:10;;;;;;;0.30;0.30;;;;;;;18.84;44.73;101625.88;5117371;28;20039;-48
2023/04/10 04:58:36;;;;;;;0.20;0.20;;;;;;;18.83;44.66;101621.47;5116873;28;20076;-49
2023/04/10 05:01:01;;;;;;;0.30;0.30;;;;;;;18.84;44.75;101629.47;5116882;28;20047;-49
2023/04/10 05:03:27;;;;;;;0.20;0.20;;;;;;;18.83;44.69;101624.22;5116953;28;20054;-48
2023/04/10 05:05:54;;;;;;;0.20;0.20;;;;;;;18.83;44.64;101621.47;5116880;28;20055;-48
2023/04/10 05:08:20;;;;;;;0.20;0.20;;;;;;;18.83;44.88;101613.19;5098177;28;20043;-49
2023/04/10 05:10:45;;;;;;;0.22;0.22;;;;;;;18.83;44.95;101613.19;5116430;28;20070;-48
2023/04/10 05:13:11;;;;;;;0.25;0.25;;;;;;;18.83;44.91;101611.25;5116594;28;20095;-50
2023/04/10 05:15:38;;;;;;;0.20;0.20;;;;;;;18.82;44.76;101615.06;5116924;28;20047;-49
2023/04/10 05:18:04;;;;;;;0.20;0.20;;;;;;;18.84;44.63;101620.34;5116308;28;20239;-48
2023/04/10 05:20:30;;;;;;;0.20;0.20;;;;;;;18.83;44.84;101616.78;5116538;28;20425;-48
2023/04/10 05:22:57;;;;;;;0.20;0.20;;;;;;;18.84;44.66;101623.94;5116205;27;20140;-48
2023/04/10 05:25:23;;;;;;;0.30;0.30;;;;;;;18.84;44.81;101626.72;5094793;28;20051;-47
2023/04/10 05:27:48;;;;;;;0.22;0.22;;;;;;;18.84;44.69;101620.34;5094134;28;20448;-48
2023/04/10 05:30:14;;;;;;;0.20;0.20;;;;;;;18.84;44.67;101614.84;5095073;28;20112;-48
2023/04/10 05:32:40;;;;;;;0.20;0.20;;;;;;;18.84;44.63;101614.84;5098930;28;20070;-49
2023/04/10 05:35:06;;;;;;;0.20;0.20;;;;;;;18.83;44.69;101619.53;5115140;28;20050;-49
2023/04/10 05:37:32;;;;;;;0.20;0.20;;;;;;;18.83;44.68;101625.03;5115058;28;20777;-48
2023/04/10 05:39:58;;;;;;;0.25;0.25;;;;;;;18.83;44.59;101618.69;5115423;28;20528;-48
2023/04/10 05:42:24;;;;;;;0.20;0.20;;;;;;;18.83;44.86;101619.53;5115360;28;20050;-48
2023/04/10 05:44:51;;;;;;;0.20;0.20;;;;;;;18.83;44.72;101622.28;5115238;28;20050;-48
2023/04/10 05:47:16;;;;;;;0.20;0.20;;;;;;;18.84;44.88;101618.44;5097332;28;20455;-48
2023/04/10 05:49:42;;;;;;;0.20;0.20;;;;;;;18.83;44.90;101618.69;5115485;28;20064;-48
2023/04/10 05:52:08;;;;;;;0.20;0.20;;;;;;;18.84;44.62;101621.19;5114136;28;20104;-50
2023/04/10 05:54:34;;;;;;;0.20;0.20;;;;;;;18.84;44.72;101623.94;5105764;28;20506;-47
2023/04/10 05:57:00;;;;;;;0.20;0.20;;;;;;;18.84;44.95;101614.84;5115687;28;20091;-48
2023/04/10 05:59:26;;;;;;;0.30;0.30;;;;;;;18.84;44.75;101617.59;5115690;28;20454;-48
2023/04/10 06:01:52;;;;;;;0.20;0.20;;;;;;;18.85;44.49;101610.97;5096925;28;20047;-48
2023/04/10 06:04:17;;;;;;;0.20;0.20;;;;;;;18.83;44.73;101604.91;5095467;28;20075;-47
2023/04/10 06:06:43;;;;;;;0.20;0.20;;;;;;;18.84;44.76;101604.63;5115350;28;20062;-48
2023/04/10 06:09:09;;;;;;;0.20;0.20;;;;;;;18.84;44.85;101601.88;5115174;28;20054;-48
2023/04/10 06:11:35;;;;;;;0.20;0.20;;;;;;;18.83;44.92;101594.69;5114845;28;20120;-49
2023/04/10 06:14:01;;;;;;;0.20;0.20;;;;;;;18.82;44.82;101595.75;5114945;28;20054;-48
2023/04/10 06:16:26;;;;;;;0.28;0.28;;;;;;;18.84;44.69;101609.31;5115199;28;20043;-47
2023/04/10 06:18:53;;;;;;;0.30;0.30;;;;;;;18.85;44.62;101608.22;5096715;28;20050;-48
2023/04/10 06:21:19;;;;;;;0.20;0.20;;;;;;;18.84;44.60;101606.56;5101992;27;20115;-48
2023/04/10 06:23:45;;;;;;;0.30;0.30;;;;;;;18.84;44.42;101598.28;5122759;27;20316;-50
2023/04/10 06:26:10;;;;;;;0.30;0.30;;;;;;;18.84;44.53;101599.09;5115037;28;20055;-48
2023/04/10 06:28:36;;;;;;;0.20;0.20;;;;;;;18.85;44.73;101598.00;5115144;28;20225;-51
2023/04/10 06:31:03;;;;;;;0.20;0.20;;;;;;;18.84;44.90;101596.34;5115179;27;20250;-48
2023/04/10 06:33:29;;;;;;;0.30;0.30;;;;;;;18.84;44.75;101587.25;5114850;28;20356;-48
2023/04/10 06:35:54;;;;;;;0.20;0.20;;;;;;;18.84;44.75;101584.47;5099209;28;20043;-48
2023/04/10 06:38:20;;;;;;;0.30;0.30;;;;;;;18.83;44.59;101589.16;5115347;27;20506;-48
2023/04/10 06:40:46;;;;;;;0.30;0.30;;;;;;;18.84;44.81;101587.25;5116479;27;20330;-48
2023/04/10 06:43:11;;;;;;;0.30;0.30;;;;;;;18.83;44.82;101589.16;5118455;28;20487;-48
2023/04/10 06:45:37;;;;;;;0.20;0.20;;;;;;;18.84;44.85;101584.47;5118433;28;20043;-48
2023/04/10 06:48:03;;;;;;;0.20;0.20;;;;;;;18.84;44.68;101590.00;5118518;28;20685;-48
2023/04/10 06:50:29;;;;;;;0.22;0.22;;;;;;;18.84;44.74;101584.47;5118993;28;20050;-48
2023/04/10 06:52:59;;;;;;;0.20;0.20;;;;;;;18.83;44.83;101580.91;5118273;28;20542;-49
2023/04/10 06:55:25;;;;;;;0.30;0.30;;;;;;;18.84;44.62;101579.78;5117893;28;20097;-48
2023/04/10 06:57:51;;;;;;;0.30;0.30;;;;;;;18.84;44.62;101585.31;5118697;27;20471;-47
2023/04/10 07:00:17;;;;;;;0.30;0.30;;;;;;;18.84;44.79;101587.25;5118934;28;20059;-48
2023/04/10 07:02:43;;;;;;;0.20;0.20;;;;;;;18.85;44.67;101591.66;5118623;27;20668;-50
2023/04/10 07:05:09;;;;;;;0.30;0.30;;;;;;;18.84;44.76;101588.06;5118055;28;20209;-47
2023/04/10 07:07:35;;;;;;;0.20;0.20;;;;;;;18.84;44.84;101584.47;5118411;28;20058;-48
2023/04/10 07:10:00;;;;;;;0.20;0.20;;;;;;;18.84;44.88;101576.19;5118900;28;20564;-48
2023/04/10 07:12:26;;;;;;;0.20;0.20;;;;;;;18.85;44.70;101572.34;5117968;28;20051;-47
2023/04/10 07:14:52;;;;;;;0.20;0.20;;;;;;;18.84;44.84;101570.69;5118072;28;20058;-48
2023/04/10 07:17:17;;;;;;;0.30;0.30;;;;;;;18.85;44.88;101567.66;5118178;28;20070;-51
2023/04/10 07:19:43;;;;;;;0.30;0.30;;;;;;;18.84;44.57;101571.50;5118154;28;20380;-47
2023/04/10 07:22:08;;;;;;;0.30;0.30;;;;;;;18.85;44.74;101569.59;5098525;28;20403;-49
2023/04/10 07:24:34;;;;;;;0.20;0.20;;;;;;;18.84;44.83;101571.50;5117279;28;20047;-48
2023/04/10 07:27:00;;;;;;;0.20;0.20;;;;;;;18.85;44.77;101566.81;5117484;28;20261;-48
2023/04/10 07:29:26;;;;;;;0.30;0.30;;;;;;;18.85;44.94;101561.31;5117593;28;20422;-48
2023/04/10 07:31:52;;;;;;;0.20;0.20;;;;;;;18.84;44.94;101559.66;5118478;27;20472;-48
2023/04/10 07:34:17;;;;;;;0.20;0.20;;;;;;;18.85;44.91;101564.06;5117545;28;20051;-47
2023/04/10 07:36:43;;;;;;;0.20;0.20;;;;;;;18.84;44.87;101552.19;5117672;28;20502;-49
2023/04/10 07:39:11;;;;;;;0.20;0.20;;;;;;;18.84;44.91;101537.56;5117313;28;20642;-48
2023/04/10 07:41:37;;;;;;;0.30;0.30;;;;;;;18.84;44.88;101545.84;5117878;28;20078;-49
2023/04/10 07:44:03;;;;;;;0.28;0.28;;;;;;;18.85;44.59;101533.72;5117891;28;20050;-48
2023/04/10 07:46:28;;;;;;;0.20;0.20;;;;;;;18.84;44.87;101535.63;5117695;28;20047;-48
2023/04/10 07:48:54;;;;;;;0.22;0.22;;;;;;;18.85;44.63;101530.94;5117761;28;20441;-48
2023/04/10 07:51:21;;;;;;;0.20;0.20;;;;;;;18.84;44.57;101521.84;5117611;27;20155;-48
2023/04/10 07:53:46;;;;;;;0.20;0.20;;;;;;;18.85;44.68;101530.94;5082776;28;20064;-48
2023/04/10 07:56:16;;;;;;;0.20;0.20;;;;;;;18.85;44.72;101525.44;5117589;28;20070;-48
2023/04/10 07:58:42;;;;;;;0.20;0.20;;;;;;;18.84;44.88;101524.59;5116162;28;20055;-49
2023/04/10 08:01:08;;;;;;;0.20;0.20;;;;;;;18.84;44.57;101521.84;5118217;28;20047;-49
2023/04/10 08:03:39;;;;;;;0.20;0.20;;;;;;;18.84;44.74;101519.06;5117961;27;20495;-47
2023/04/10 08:06:07;;;;;;;0.20;0.20;;;;;;;18.84;44.73;101508.03;5095542;28;20086;-48
2023/04/10 08:08:38;;;;;;;0.20;0.20;;;;;;;18.84;44.84;101509.97;5096792;28;20043;-48
2023/04/10 08:11:07;;;;;;;0.20;0.20;;;;;;;18.84;45.05;101505.28;5097455;28;20224;-47
2023/04/10 08:13:32;;;;;;;0.75;0.30;;;;;;;18.84;44.57;101505.28;5096161;28;20050;-48
2023/04/10 08:15:58;;;;;;;0.20;0.20;;;;;;;18.85;44.67;101495.06;5095587;28;20044;-49
2023/04/10 08:18:24;;;;;;;0.20;0.20;;;;;;;18.84;44.73;101491.47;5095830;28;20326;-49
2023/04/10 08:20:50;;;;;;;0.30;0.30;;;;;;;18.84;44.57;101494.25;5105803;27;20075;-49
2023/04/10 08:23:15;;;;;;;0.20;0.20;;;;;;;18.84;44.63;101491.47;5106115;28;20258;-48
2023/04/10 08:25:46;;;;;;;0.20;0.20;;;;;;;18.84;44.58;101480.44;5117553;28;20103;-48
2023/04/10 08:28:12;;;;;;;0.20;0.20;;;;;;;18.85;44.90;101481.28;5117078;28;20047;-48
2023/04/10 08:30:37;;;;;;;0.30;0.30;;;;;;;18.84;44.83;101480.44;5117267;28;20472;-49
2023/04/10 08:33:03;;;;;;;0.20;0.20;;;;;;;18.84;44.59;101477.69;5117590;27;20058;-48
2023/04/10 08:35:29;;;;;;;0.20;0.20;;;;;;;18.84;44.89;101469.41;5117437;28;20047;-48
2023/04/10 08:37:54;;;;;;;0.20;0.20;;;;;;;18.83;44.89;101467.75;5116911;28;20244;-48
2023/04/10 08:40:39;;;;;;;0.30;0.30;;;;;;;18.84;44.80;101457.53;5114628;28;20525;-49
2023/04/10 08:43:04;;;;;;;0.20;0.20;;;;;;;18.83;44.96;101462.22;5116710;28;20617;-48
2023/04/10 08:45:30;;;;;;;0.20;0.20;;;;;;;18.84;44.57;101465.81;5117035;28;20063;-48
2023/04/10 08:47:58;;;;;;;0.30;0.30;;;;;;;18.84;44.74;101452.03;5116536;28;20047;-49
2023/04/10 08:50:24;;;;;;;0.20;0.20;;;;;;;18.84;44.68;101441.81;5117160;28;20152;-48
2023/04/10 08:52:51;;;;;;;0.22;0.22;;;;;;;18.84;44.64;101450.09;5117071;28;20043;-48
2023/04/10 08:55:17;;;;;;;0.20;0.20;;;;;;;18.84;44.80;101454.78;5095276;28;20055;-47
2023/04/10 08:57:44;;;;;;;0.30;0.30;;;;;;;18.85;44.76;101450.91;5097566;28;20059;-49
2023/04/10 09:00:19;;;;;;;0.30;0.30;;;;;;;18.84;44.68;101441.81;5116588;27;20076;-48
2023/04/10 09:02:53;;;;;;;0.20;0.20;;;;;;;18.84;44.88;101439.06;5115288;27;20044;-48
2023/04/10 09:05:19;;;;;;;0.20;0.20;;;;;;;18.84;44.87;101430.78;5116053;28;20141;-49
2023/04/10 09:07:45;;;;;;;0.30;0.30;;;;;;;18.84;44.88;101433.53;5115964;28;20050;-49
2023/04/10 09:10:11;;;;;;;0.30;0.30;;;;;;;18.84;44.57;101438.22;5115997;28;20555;-48
2023/04/10 09:12:45;;;;;;;0.20;0.20;;;;;;;18.84;44.66;101441.81;5116208;28;20043;-48
2023/04/10 09:15:10;;;;;;;0.30;0.30;;;;;;;18.85;44.72;101437.13;5094607;28;20051;-48
2023/04/10 09:17:36;;;;;;;0.30;0.30;;;;;;;18.85;44.63;101451.75;5096019;28;20052;-48
2023/04/10 09:20:19;;;;;;;0.28;0.28;;;;;;;18.84;44.79;101439.06;5116068;27;20099;-49
2023/04/10 09:22:45;;;;;;;0.88;0.63;;;;;;;18.85;44.80;101445.41;5132324;27;20453;-48
2023/04/10 09:25:28;;;;;;;0.20;0.20;;;;;;;18.84;44.72;101440.97;5115863;28;20057;-48
2023/04/10 09:28:03;;;;;;;0.30;0.30;;;;;;;18.84;44.89;101441.81;5116065;28;20127;-48
2023/04/10 09:30:44;;;;;;;0.30;0.30;;;;;;;18.84;44.60;101447.34;5097540;28;20104;-48
2023/04/10 09:33:27;;;;;;;0.30;0.30;;;;;;;18.85;44.72;101442.63;5115612;27;20537;-48
2023/04/10 09:35:53;;;;;;;0.20;0.20;;;;;;;18.85;44.77;101434.34;5094016;28;20411;-49
2023/04/10 09:38:20;;;;;;;0.30;0.30;;;;;;;18.85;44.63;101423.31;5095464;28;20055;-47
2023/04/10 09:40:47;;;;;;;0.20;0.20;;;;;;;18.84;44.99;101419.72;5097347;28;20458;-48
2023/04/10 09:43:27;;;;;;;0.20;0.20;;;;;;;18.84;44.95;101416.16;5097213;28;20061;-49
2023/04/10 09:45:56;;;;;;;0.20;0.20;;;;;;;18.84;44.74;101416.97;5115190;28;20074;-48
2023/04/10 09:48:23;;;;;;;0.20;0.20;;;;;;;18.85;44.87;101415.03;5097708;28;20076;-48
2023/04/10 09:50:49;;;;;;;0.30;0.30;;;;;;;18.84;44.88;101405.94;5114172;28;20046;-48
2023/04/10 09:53:18;;;;;;;0.20;0.20;;;;;;;18.84;44.72;101405.09;5115452;27;20086;-47
2023/04/10 09:55:44;;;;;;;0.25;0.25;;;;;;;18.85;44.74;101393.78;5093994;28;20100;-48
2023/04/10 09:58:11;;;;;;;0.20;0.20;;;;;;;18.85;44.62;101393.78;5077155;28;20518;-48
2023/04/10 10:00:42;;;;;;;0.30;0.30;;;;;;;18.85;44.74;101384.69;5104511;28;20502;-49
2023/04/10 10:03:11;;;;;;;0.30;0.30;;;;;;;18.85;44.94;101388.28;5115655;27;20047;-48
2023/04/10 10:05:39;;;;;;;0.30;0.30;;;;;;;18.85;44.62;101393.78;5093364;28;20540;-48
2023/04/10 10:08:07;;;;;;;0.20;0.20;;;;;;;18.84;44.73;101386.63;5094141;28;20039;-49
2023/04/10 10:10:33;;;;;;;0.20;0.20;;;;;;;18.84;44.58;101375.59;5093690;28;20043;-48
2023/04/10 10:13:00;;;;;;;0.20;0.20;;;;;;;18.84;44.85;101378.34;5101288;28;20449;-48
2023/04/10 10:15:36;;;;;;;0.30;0.30;;;;;;;18.86;44.80;101378.06;5115005;27;20108;-48
2023/04/10 10:18:08;;;;;;;0.30;0.30;;;;;;;18.85;44.91;101365.38;5115318;28;20043;-49
2023/04/10 10:20:34;;;;;;;0.30;0.30;;;;;;;18.85;44.54;101365.38;5115571;27;20638;-48
2023/04/10 10:23:03;;;;;;;0.20;0.20;;;;;;;18.85;44.58;101362.59;5095978;28;20134;-48
2023/04/10 10:25:30;;;;;;;0.20;0.20;;;;;;;18.85;44.63;101352.41;5096483;28;20059;-48
2023/04/10 10:27:59;;;;;;;0.30;0.30;;;;;;;18.85;44.82;101348.81;5097350;28;20070;-47
2023/04/10 10:30:25;;;;;;;0.20;0.20;;;;;;;18.84;44.73;101336.94;5114853;28;20145;-48
2023/04/10 10:32:57;;;;;;;0.30;0.30;;;;;;;18.85;44.80;101315.69;5115224;27;20051;-49
2023/04/10 10:35:25;;;;;;;0.20;0.20;;;;;;;18.85;44.99;101319.28;5096912;28;20051;-49
2023/04/10 10:37:55;;;;;;;0.20;0.20;;;;;;;18.85;44.58;101315.69;5115413;28;20096;-49
2023/04/10 10:40:25;;;;;;;0.20;0.20;;;;;;;18.86;44.66;101306.31;5115209;28;20039;-49
2023/04/10 10:45:33;;;;;;;0.20;0.20;;;;;;;18.88;44.54;101291.16;5161077;27;20377;-46
2023/04/10 10:47:59;;;;;;;0.30;0.30;;;;;;;18.88;44.42;101288.41;5117049;27;20733;-47
2023/04/10 10:51:00;;;;;;;0.20;0.20;;;;;;;18.87;44.73;101281.22;5153394;27;20646;-47
2023/04/10 10:53:38;;;;;;;0.20;0.20;;;;;;;18.86;44.64;101281.47;5129825;27;20050;-46
2023/04/10 10:58:57;;;;;;;0.30;0.30;;;;;;;18.85;44.75;101269.63;5174780;27;20619;-47
2023/04/10 11:01:23;;;;;;;0.30;0.30;;;;;;;18.85;44.48;101264.09;5153278;27;20571;-47
2023/04/10 11:03:49;;;;;;;0.20;0.20;;;;;;;18.85;44.64;101260.50;5110666;27;20644;-47
2023/04/10 11:06:18;;;;;;;0.30;0.30;;;;;;;18.85;44.89;101247.53;5113736;27;20685;-46
2023/04/10 11:08:45;;;;;;;;;;;;;;;18.85;44.57;101255.00;5131825;27;20053;-47
2023/04/10 11:14:00;;;;;;;0.20;0.20;;;;;;;18.84;44.75;101253.34;5174635;27;20123;-48
2023/04/10 11:19:06;;;;;;;0.30;0.30;;;;;;;18.85;44.89;101243.94;5163595;27;20141;-46
2023/04/10 11:22:02;;;;;;;0.20;0.20;;;;;;;18.85;44.77;101243.94;5120227;27;20490;-47
2023/04/10 11:24:29;;;;;;;0.30;0.30;;;;;;;18.84;44.71;101232.09;5134872;27;20042;-47
2023/04/10 11:26:55;;;;;;;0.30;0.30;;;;;;;18.84;44.83;101229.31;5134862;27;20046;-46
2023/04/10 11:29:32;;;;;;;0.30;0.30;;;;;;;18.85;44.80;101225.47;5153419;27;20046;-47
2023/04/10 11:31:59;;;;;;;0.28;0.28;;;;;;;18.85;44.70;101222.69;5134676;27;20082;-47
2023/04/10 11:34:26;;;;;;;0.20;0.20;;;;;;;18.85;44.79;101211.66;5134480;27;20042;-45
2023/04/10 11:36:52;;;;;;;0.30;0.30;;;;;;;18.85;44.67;101210.84;5134460;27;20070;-47